Time;durP1;ratioP1;P1;durP2;ratioP2;P2;SDS_P1;SDS_P2;PMS_P1;PMS_P2;Temp;Humidity;BMP_temperature;BMP_pressure;BME280_temperature;BME280_humidity;BME280_pressure;Samples;Min_cycle;Max_cycle;Signal;HPM_P1;HPM_P2
2021/05/27 00:01:09;;;;;;;16.60;10.77;;;11.60;99.90;;;;;;5055598;28;20483;-82
2021/05/27 00:03:35;;;;;;;16.53;10.20;;;11.60;99.90;;;;;;5055501;28;20456;-82
2021/05/27 00:06:02;;;;;;;16.00;8.47;;;11.60;99.90;;;;;;5055254;28;20456;-80
2021/05/27 00:08:28;;;;;;;14.30;9.33;;;11.60;99.90;;;;;;5054810;28;20468;-79
2021/05/27 00:10:54;;;;;;;14.57;8.93;;;11.60;99.90;;;;;;5054552;28;20448;-81
2021/05/27 00:13:21;;;;;;;13.30;7.90;;;11.60;99.90;;;;;;5055420;28;20809;-80
2021/05/27 00:15:47;;;;;;;13.80;9.10;;;11.60;99.90;;;;;;5056152;28;20543;-81
2021/05/27 00:18:15;;;;;;;14.10;9.00;;;11.60;99.90;;;;;;5055291;28;20443;-80
2021/05/27 00:20:41;;;;;;;15.57;9.27;;;11.60;99.90;;;;;;5062229;28;20484;-81
2021/05/27 00:23:07;;;;;;;13.20;8.10;;;11.60;99.90;;;;;;5056942;28;20456;-81
2021/05/27 00:25:34;;;;;;;14.60;8.60;;;11.60;99.90;;;;;;5055388;28;20466;-81
2021/05/27 00:28:00;;;;;;;16.03;9.10;;;11.60;99.90;;;;;;5056429;28;20458;-80
2021/05/27 00:30:26;;;;;;;17.33;9.30;;;11.60;99.90;;;;;;5055529;28;20450;-81
2021/05/27 00:32:53;;;;;;;14.60;9.37;;;11.60;99.90;;;;;;5054497;28;20535;-80
2021/05/27 00:35:21;;;;;;;19.40;8.63;;;11.60;99.90;;;;;;5055507;28;20478;-80
2021/05/27 00:37:47;;;;;;;13.43;7.93;;;11.70;99.90;;;;;;5055121;28;20538;-80
2021/05/27 00:40:15;;;;;;;12.10;7.83;;;11.70;99.90;;;;;;5055968;28;20815;-80
2021/05/27 00:42:42;;;;;;;14.07;8.57;;;11.60;99.90;;;;;;5054838;28;20535;-80
2021/05/27 00:45:11;;;;;;;14.00;9.57;;;11.70;99.90;;;;;;5055056;28;20455;-81
2021/05/27 00:47:38;;;;;;;15.03;7.60;;;11.70;99.90;;;;;;5055491;28;20444;-79
2021/05/27 00:50:07;;;;;;;16.50;8.20;;;11.70;99.90;;;;;;5055738;28;20487;-80
2021/05/27 00:52:34;;;;;;;14.33;9.80;;;11.80;99.90;;;;;;5055154;28;20451;-81
2021/05/27 00:55:05;;;;;;;11.13;6.60;;;11.70;99.90;;;;;;5056095;28;20590;-81
2021/05/27 00:57:33;;;;;;;13.57;7.73;;;11.60;99.90;;;;;;5055629;28;20444;-80
2021/05/27 01:00:00;;;;;;;12.77;7.53;;;11.60;99.90;;;;;;5055712;28;20483;-79
2021/05/27 01:02:27;;;;;;;16.63;9.73;;;11.60;99.90;;;;;;5055166;28;20483;-80
2021/05/27 01:04:54;;;;;;;14.33;9.00;;;11.50;99.90;;;;;;5055138;28;20511;-81
2021/05/27 01:07:20;;;;;;;14.43;8.10;;;11.60;99.90;;;;;;5058768;28;20541;-80
2021/05/27 01:09:47;;;;;;;14.60;9.27;;;11.60;99.90;;;;;;5059529;28;20841;-79
2021/05/27 01:12:14;;;;;;;14.27;9.87;;;11.60;99.90;;;;;;5059829;28;20452;-81
2021/05/27 01:17:24;;;;;;;14.10;10.13;;;11.70;99.90;;;;;;5058764;28;20447;-80
2021/05/27 01:19:52;;;;;;;15.37;11.17;;;11.70;99.90;;;;;;5060939;28;20475;-79
2021/05/27 01:22:20;;;;;;;18.43;12.57;;;11.70;99.90;;;;;;5059488;28;20505;-82
2021/05/27 01:24:46;;;;;;;17.03;12.03;;;11.60;99.90;;;;;;5060656;28;20479;-82
2021/05/27 01:27:13;;;;;;;18.57;13.63;;;11.60;99.90;;;;;;5060732;28;20451;-80
2021/05/27 01:29:39;;;;;;;17.80;11.70;;;11.70;99.90;;;;;;5061339;28;20531;-81
2021/05/27 01:32:06;;;;;;;20.47;13.40;;;11.60;99.90;;;;;;5058956;28;20451;-80
2021/05/27 01:34:32;;;;;;;17.77;12.77;;;11.70;99.90;;;;;;5059543;28;20463;-80
2021/05/27 01:36:58;;;;;;;21.73;14.80;;;11.60;99.90;;;;;;5059755;28;20470;-80
2021/05/27 01:39:26;;;;;;;23.60;15.80;;;11.60;99.90;;;;;;5058918;28;20566;-81
2021/05/27 01:41:52;;;;;;;21.60;15.20;;;11.60;99.90;;;;;;5059091;28;20521;-80
2021/05/27 01:44:18;;;;;;;21.00;15.17;;;11.60;99.90;;;;;;5059517;28;20451;-80
2021/05/27 01:46:45;;;;;;;25.40;17.43;;;11.60;99.90;;;;;;5059698;28;20452;-81
2021/05/27 01:49:11;;;;;;;22.20;16.73;;;11.60;99.90;;;;;;5075702;22;20472;-83
2021/05/27 01:51:37;;;;;;;24.93;18.10;;;11.60;99.90;;;;;;5057502;28;20467;-85
2021/05/27 01:54:04;;;;;;;25.97;17.67;;;11.60;99.90;;;;;;5060401;28;20520;-83
2021/05/27 01:56:31;;;;;;;29.03;21.40;;;11.60;99.90;;;;;;5057445;28;20521;-84
2021/05/27 01:59:03;;;;;;;25.33;17.90;;;11.50;99.90;;;;;;5058475;28;20484;-83
2021/05/27 02:01:29;;;;;;;27.53;19.90;;;11.40;99.90;;;;;;5036977;28;20489;-84
2021/05/27 02:03:55;;;;;;;24.63;18.17;;;11.40;99.90;;;;;;5038605;28;20488;-84
2021/05/27 02:06:22;;;;;;;24.20;19.60;;;11.30;99.90;;;;;;5034606;28;20568;-84
2021/05/27 02:11:29;;;;;;;25.50;18.73;;;11.30;99.90;;;;;;5020332;28;20445;-82
2021/05/27 02:13:56;;;;;;;29.07;19.03;;;11.30;99.90;;;;;;5018233;28;20458;-81
2021/05/27 02:16:22;;;;;;;26.97;19.83;;;11.30;99.90;;;;;;5019747;28;20454;-82
2021/05/27 02:18:48;;;;;;;25.27;18.30;;;11.20;99.90;;;;;;5018463;28;20481;-82
2021/05/27 02:21:15;;;;;;;28.03;20.23;;;11.20;99.90;;;;;;5018543;28;21001;-82
2021/05/27 02:23:41;;;;;;;26.70;19.70;;;11.10;99.90;;;;;;5017883;28;20552;-82
2021/05/27 02:26:08;;;;;;;27.80;17.70;;;11.10;99.90;;;;;;5018065;28;20453;-82
2021/05/27 02:28:34;;;;;;;23.17;16.90;;;11.10;99.90;;;;;;5018188;28;20545;-82
2021/05/27 02:31:01;;;;;;;26.90;18.90;;;11.10;99.90;;;;;;5018218;28;20474;-82
2021/05/27 02:33:28;;;;;;;28.17;20.07;;;11.10;99.90;;;;;;5019389;28;20983;-81
2021/05/27 02:35:55;;;;;;;24.13;18.70;;;11.10;99.90;;;;;;5021722;28;20462;-82
2021/05/27 02:38:21;;;;;;;25.80;18.40;;;11.10;99.90;;;;;;5037321;28;20488;-82
2021/05/27 02:40:47;;;;;;;28.63;16.93;;;11.10;99.90;;;;;;5020040;28;20584;-82
2021/05/27 02:43:14;;;;;;;30.67;20.00;;;11.10;99.90;;;;;;5018903;28;20458;-82
2021/05/27 02:45:40;;;;;;;23.53;17.30;;;11.00;99.90;;;;;;5020407;28;20479;-82
2021/05/27 02:48:08;;;;;;;25.67;17.53;;;11.00;99.90;;;;;;5022837;28;20484;-82
2021/05/27 02:50:34;;;;;;;31.50;18.00;;;11.00;99.90;;;;;;5021972;28;20481;-83
2021/05/27 02:53:00;;;;;;;23.43;16.87;;;11.00;99.90;;;;;;5021045;28;20513;-83
2021/05/27 02:55:27;;;;;;;31.83;19.77;;;11.00;99.90;;;;;;5020151;28;20545;-82
2021/05/27 02:57:53;;;;;;;33.67;18.57;;;11.00;99.90;;;;;;5020103;28;20453;-83
2021/05/27 03:00:20;;;;;;;24.17;17.30;;;10.90;99.90;;;;;;5019645;28;20477;-83
2021/05/27 03:02:46;;;;;;;26.53;17.40;;;10.90;99.90;;;;;;5019229;28;20458;-83
2021/05/27 03:05:14;;;;;;;31.23;19.07;;;10.90;99.90;;;;;;5020513;28;20452;-83
2021/05/27 03:07:40;;;;;;;33.10;21.23;;;10.90;99.90;;;;;;5019508;28;20821;-83
2021/05/27 03:10:07;;;;;;;30.50;20.53;;;10.80;99.90;;;;;;5020057;28;20511;-84
2021/05/27 03:12:33;;;;;;;30.63;19.50;;;10.80;99.90;;;;;;5019344;28;20600;-84
2021/05/27 03:15:00;;;;;;;27.40;17.90;;;10.90;99.90;;;;;;5020383;28;20449;-83
2021/05/27 03:17:26;;;;;;;30.43;18.60;;;10.80;99.90;;;;;;5021480;28;20464;-83
2021/05/27 03:19:52;;;;;;;36.07;20.77;;;10.80;99.90;;;;;;5021173;28;20556;-83
2021/05/27 03:22:19;;;;;;;30.13;16.93;;;10.70;99.90;;;;;;5021803;28;20528;-84
2021/05/27 03:24:46;;;;;;;29.50;17.40;;;10.70;99.90;;;;;;5022292;28;20529;-84
2021/05/27 03:27:13;;;;;;;34.77;17.00;;;10.70;99.90;;;;;;5022253;28;20464;-84
2021/05/27 03:29:40;;;;;;;34.77;19.93;;;10.60;99.90;;;;;;5023368;28;20485;-85
2021/05/27 03:32:06;;;;;;;32.10;18.90;;;10.60;99.90;;;;;;5023268;28;20546;-82
2021/05/27 03:34:33;;;;;;;42.60;22.90;;;10.60;99.90;;;;;;5022395;28;20533;-84
2021/05/27 03:36:59;;;;;;;31.73;18.20;;;10.60;99.90;;;;;;5023476;28;20453;-83
2021/05/27 03:39:26;;;;;;;27.53;15.63;;;10.60;99.90;;;;;;5022749;28;20533;-85
2021/05/27 03:41:53;;;;;;;31.57;18.30;;;10.60;99.90;;;;;;5021941;28;20990;-85
2021/05/27 03:44:19;;;;;;;28.83;17.63;;;10.60;99.90;;;;;;5021854;28;20545;-84
2021/05/27 03:46:46;;;;;;;28.47;15.80;;;10.60;99.90;;;;;;5022126;28;20462;-83
2021/05/27 03:49:13;;;;;;;37.00;17.00;;;10.60;99.90;;;;;;5021682;28;20461;-84
2021/05/27 03:51:39;;;;;;;27.13;14.50;;;10.60;99.90;;;;;;5022979;28;20512;-84
2021/05/27 03:54:06;;;;;;;29.07;16.10;;;10.60;99.90;;;;;;5023078;28;20482;-82
2021/05/27 03:56:33;;;;;;;25.10;16.40;;;10.50;99.90;;;;;;5024537;28;20458;-84
2021/05/27 04:01:44;;;;;;;48.93;25.23;;;10.50;99.90;;;;;;5021549;28;20524;-84
2021/05/27 04:09:44;;;;;;;23.20;13.73;;;10.50;99.90;;;;;;4995488;28;20462;-85
2021/05/27 04:17:41;;;;;;;25.60;15.33;;;10.60;99.90;;;;;;5020793;28;20440;-85
2021/05/27 04:20:09;;;;;;;22.53;15.30;;;10.50;99.90;;;;;;5024875;28;20465;-85
2021/05/27 04:22:35;;;;;;;28.00;14.37;;;10.50;99.90;;;;;;5025129;28;20486;-85
2021/05/27 04:25:02;;;;;;;28.23;14.70;;;10.50;99.90;;;;;;5025268;28;20449;-85
2021/05/27 04:27:29;;;;;;;20.00;14.80;;;10.50;99.90;;;;;;5025484;28;20513;-84
2021/05/27 04:29:55;;;;;;;22.10;14.53;;;10.60;99.90;;;;;;5025910;28;20497;-85
2021/05/27 04:35:06;;;;;;;23.20;15.27;;;10.50;99.90;;;;;;5024059;28;20460;-84
2021/05/27 04:37:33;;;;;;;28.60;15.60;;;10.50;99.90;;;;;;5025054;28;20480;-85
2021/05/27 04:40:01;;;;;;;20.90;13.10;;;10.50;99.90;;;;;;5026104;28;20562;-85
2021/05/27 04:42:28;;;;;;;67.60;62.33;;;10.60;99.90;;;;;;5022989;28;20455;-83
2021/05/27 04:44:54;;;;;;;26.93;14.80;;;10.60;99.90;;;;;;5026523;28;20294;-85
2021/05/27 04:47:21;;;;;;;22.90;13.30;;;10.60;99.90;;;;;;5025963;28;20464;-84
2021/05/27 04:49:47;;;;;;;22.70;13.80;;;10.60;99.90;;;;;;5021989;28;21071;-84
2021/05/27 04:52:16;;;;;;;26.47;13.40;;;10.70;99.90;;;;;;5016905;28;20513;-85
2021/05/27 04:54:42;;;;;;;25.90;12.23;;;10.60;99.90;;;;;;5022950;28;20446;-86
2021/05/27 04:57:08;;;;;;;22.73;12.57;;;10.60;99.90;;;;;;5025918;28;20540;-86
2021/05/27 04:59:36;;;;;;;27.80;13.07;;;10.60;99.90;;;;;;5031808;28;20525;-84
2021/05/27 05:02:02;;;;;;;24.97;12.27;;;10.50;99.90;;;;;;5033578;28;20545;-85
2021/05/27 05:04:28;;;;;;;22.97;11.33;;;10.50;99.90;;;;;;5034378;28;20465;-83
2021/05/27 05:06:54;;;;;;;24.17;12.70;;;10.50;99.90;;;;;;5027937;28;20461;-83
2021/05/27 05:09:21;;;;;;;20.03;12.30;;;10.40;99.90;;;;;;5024058;28;20473;-80
2021/05/27 05:11:47;;;;;;;24.43;11.43;;;10.40;99.90;;;;;;5019718;28;20957;-84
2021/05/27 05:14:14;;;;;;;22.03;12.67;;;10.40;99.90;;;;;;5019011;28;20450;-84
2021/05/27 05:16:41;;;;;;;25.10;12.90;;;10.30;99.90;;;;;;5024191;28;20466;-83
2021/05/27 05:19:07;;;;;;;23.57;10.87;;;10.30;99.90;;;;;;5023255;28;20476;-85
2021/05/27 05:21:33;;;;;;;22.20;11.73;;;10.30;99.90;;;;;;5019997;28;20477;-85
2021/05/27 05:24:00;;;;;;;24.50;12.10;;;10.30;99.90;;;;;;5022507;28;20450;-83
2021/05/27 05:26:26;;;;;;;18.90;12.50;;;10.30;99.90;;;;;;5020645;28;21145;-83
2021/05/27 05:28:52;;;;;;;22.90;13.30;;;10.30;99.90;;;;;;5024136;28;20537;-84
2021/05/27 05:31:19;;;;;;;22.23;11.30;;;10.30;99.90;;;;;;5024094;28;20500;-85
2021/05/27 05:33:46;;;;;;;21.20;11.43;;;10.30;99.90;;;;;;5024932;28;20489;-85
2021/05/27 05:36:12;;;;;;;23.60;15.23;;;10.30;99.90;;;;;;5025448;28;20557;-84
2021/05/27 05:38:39;;;;;;;22.83;14.63;;;10.40;99.90;;;;;;5025160;28;20899;-83
2021/05/27 05:41:05;;;;;;;26.93;15.00;;;10.50;99.90;;;;;;5023815;28;20488;-83
2021/05/27 05:43:31;;;;;;;25.27;16.13;;;10.60;99.90;;;;;;5023918;28;20513;-85
2021/05/27 05:45:58;;;;;;;21.60;14.70;;;10.70;99.90;;;;;;5023189;28;20450;-84
2021/05/27 05:48:27;;;;;;;26.10;15.30;;;10.80;99.90;;;;;;5024006;28;20526;-84
2021/05/27 05:51:01;;;;;;;30.07;16.00;;;10.80;99.90;;;;;;5018422;28;20473;-84
2021/05/27 05:53:27;;;;;;;26.73;17.07;;;10.80;99.90;;;;;;5019785;28;20450;-86
2021/05/27 05:55:55;;;;;;;25.03;16.63;;;10.80;99.90;;;;;;5022364;28;20549;-85
2021/05/27 05:58:23;;;;;;;29.10;18.70;;;10.90;99.90;;;;;;5020685;28;20480;-84
2021/05/27 06:00:51;;;;;;;28.30;18.00;;;10.90;99.90;;;;;;5021806;28;20501;-85
2021/05/27 06:03:18;;;;;;;22.30;15.80;;;10.90;99.90;;;;;;5020438;28;20464;-82
2021/05/27 06:05:44;;;;;;;25.40;16.90;;;10.90;99.90;;;;;;5020596;28;20528;-86
2021/05/27 06:08:12;;;;;;;26.67;17.57;;;11.00;99.90;;;;;;5021608;28;20608;-85
2021/05/27 06:10:40;;;;;;;26.87;17.33;;;11.10;99.90;;;;;;5021071;28;20482;-85
2021/05/27 06:13:06;;;;;;;29.67;17.83;;;11.10;99.90;;;;;;5021477;28;20460;-85
2021/05/27 06:15:33;;;;;;;35.40;19.80;;;11.00;99.90;;;;;;5027313;28;20496;-86
2021/05/27 06:18:00;;;;;;;26.10;16.83;;;10.90;99.90;;;;;;5017180;28;20444;-87
2021/05/27 06:20:29;;;;;;;36.23;18.50;;;11.00;99.90;;;;;;5015758;28;20501;-86
2021/05/27 06:22:55;;;;;;;28.87;19.50;;;10.90;99.90;;;;;;5017114;28;20496;-85
2021/05/27 06:25:24;;;;;;;25.20;16.70;;;11.00;99.90;;;;;;5019804;28;20468;-87
2021/05/27 06:27:51;;;;;;;26.80;16.90;;;11.00;99.90;;;;;;5022027;28;20528;-83
2021/05/27 06:30:18;;;;;;;25.20;15.53;;;10.90;99.90;;;;;;5018382;28;20469;-84
2021/05/27 06:32:45;;;;;;;26.23;17.93;;;11.00;99.90;;;;;;5016507;28;20457;-84
2021/05/27 06:35:12;;;;;;;30.83;19.47;;;11.00;99.90;;;;;;5014788;28;20457;-84
2021/05/27 06:37:41;;;;;;;25.73;16.90;;;11.10;99.90;;;;;;5017220;28;20553;-82
2021/05/27 06:40:09;;;;;;;27.77;16.77;;;11.20;99.90;;;;;;5015311;28;20568;-83
2021/05/27 06:42:36;;;;;;;30.50;18.20;;;11.30;99.90;;;;;;5015561;28;21005;-84
2021/05/27 06:45:03;;;;;;;27.00;18.00;;;11.30;99.90;;;;;;5015885;28;20479;-83
2021/05/27 06:47:30;;;;;;;22.17;15.67;;;11.40;99.90;;;;;;5008871;28;20442;-85
2021/05/27 06:49:56;;;;;;;30.10;17.13;;;11.30;99.90;;;;;;5020858;28;21005;-84
2021/05/27 06:52:23;;;;;;;24.70;15.27;;;11.40;99.90;;;;;;5013401;28;21023;-83
2021/05/27 06:54:51;;;;;;;21.43;14.60;;;11.40;99.90;;;;;;5024879;28;20458;-82
2021/05/27 06:57:17;;;;;;;28.17;17.80;;;11.30;99.90;;;;;;5033648;28;20434;-82
2021/05/27 06:59:44;;;;;;;27.53;16.60;;;11.40;99.90;;;;;;5020701;28;20837;-84
2021/05/27 07:02:10;;;;;;;26.60;16.70;;;11.20;99.90;;;;;;5018963;28;20580;-84
2021/05/27 07:04:37;;;;;;;26.27;15.03;;;11.30;99.90;;;;;;5018827;28;20454;-84
2021/05/27 07:07:03;;;;;;;28.90;17.10;;;11.20;99.90;;;;;;5021132;28;20434;-84
2021/05/27 07:09:29;;;;;;;36.10;21.90;;;11.20;99.90;;;;;;5007267;28;20541;-84
2021/05/27 07:11:56;;;;;;;29.60;18.33;;;11.10;99.90;;;;;;5019430;28;20893;-85
2021/05/27 07:14:22;;;;;;;31.63;19.00;;;11.20;99.90;;;;;;5019777;28;20458;-84
2021/05/27 07:16:52;;;;;;;24.00;17.90;;;11.20;99.90;;;;;;5019856;28;20478;-84
2021/05/27 07:19:18;;;;;;;24.80;17.50;;;11.20;99.90;;;;;;5018653;28;20533;-84
2021/05/27 07:21:45;;;;;;;28.70;18.10;;;11.20;99.90;;;;;;5020434;28;20644;-84
2021/05/27 07:24:11;;;;;;;25.73;16.40;;;11.20;99.90;;;;;;5020999;28;20457;-84
2021/05/27 07:26:38;;;;;;;28.80;18.63;;;11.10;99.90;;;;;;5017887;28;20541;-84
2021/05/27 07:29:04;;;;;;;30.80;21.17;;;11.10;99.90;;;;;;5017765;28;20946;-85
2021/05/27 07:31:32;;;;;;;27.23;19.83;;;11.10;99.90;;;;;;5019125;28;20549;-85
2021/05/27 07:34:00;;;;;;;29.30;19.90;;;11.00;99.90;;;;;;5021134;28;20458;-86
2021/05/27 07:36:27;;;;;;;28.73;19.30;;;11.10;99.90;;;;;;5019978;28;20458;-84
2021/05/27 07:38:53;;;;;;;25.90;17.07;;;11.00;99.90;;;;;;5018529;28;20460;-85
2021/05/27 07:41:19;;;;;;;30.37;17.27;;;11.00;99.90;;;;;;5017665;28;20560;-85
2021/05/27 07:43:46;;;;;;;25.50;17.70;;;11.10;99.90;;;;;;5019043;28;20484;-85
2021/05/27 07:46:12;;;;;;;28.17;18.87;;;11.10;99.90;;;;;;5018810;28;20537;-85
2021/05/27 07:48:39;;;;;;;30.43;18.80;;;11.10;99.90;;;;;;5017644;28;20532;-85
2021/05/27 07:51:06;;;;;;;27.00;18.27;;;11.30;99.90;;;;;;5049204;23;20556;-83
2021/05/27 07:53:32;;;;;;;23.47;16.27;;;11.30;99.90;;;;;;5044983;28;20624;-83
2021/05/27 07:55:59;;;;;;;24.83;17.00;;;11.30;99.90;;;;;;5046062;28;20461;-82
2021/05/27 07:58:25;;;;;;;27.90;19.27;;;11.30;99.90;;;;;;5045915;28;20488;-81
2021/05/27 08:00:52;;;;;;;27.43;16.63;;;11.30;99.90;;;;;;5045556;28;20472;-83
2021/05/27 08:03:18;;;;;;;24.33;15.20;;;11.30;99.90;;;;;;5045112;28;20913;-80
2021/05/27 08:05:45;;;;;;;24.37;15.50;;;11.30;99.90;;;;;;5046628;28;20513;-83
2021/05/27 08:08:12;;;;;;;22.47;14.23;;;11.20;99.90;;;;;;5046494;28;20517;-82
2021/05/27 08:10:38;;;;;;;23.73;14.27;;;11.30;99.90;;;;;;5047842;28;20473;-83
2021/05/27 08:13:05;;;;;;;24.27;14.80;;;11.20;99.90;;;;;;5047028;28;20524;-81
2021/05/27 08:15:31;;;;;;;21.33;13.93;;;11.20;99.90;;;;;;5045795;28;20543;-83
2021/05/27 08:17:58;;;;;;;24.37;14.17;;;11.20;99.90;;;;;;5047574;28;20448;-82
2021/05/27 08:20:24;;;;;;;25.87;15.03;;;11.30;99.90;;;;;;5046649;28;20600;-83
2021/05/27 08:22:50;;;;;;;22.00;14.67;;;11.30;99.90;;;;;;5044662;28;20561;-82
2021/05/27 08:25:17;;;;;;;18.73;13.47;;;11.20;99.90;;;;;;5042270;28;20510;-82
2021/05/27 08:27:44;;;;;;;24.17;12.80;;;11.10;99.90;;;;;;5042880;28;20509;-82
2021/05/27 08:30:11;;;;;;;22.07;14.83;;;11.20;99.90;;;;;;5045192;28;20525;-81
2021/05/27 08:32:37;;;;;;;27.17;15.37;;;11.20;99.90;;;;;;5044481;28;20475;-82
2021/05/27 08:35:05;;;;;;;20.90;13.80;;;11.10;99.90;;;;;;5061169;28;20448;-82
2021/05/27 08:37:31;;;;;;;58.33;28.57;;;11.10;99.90;;;;;;5041910;28;20449;-81
2021/05/27 08:39:58;;;;;;;22.00;14.40;;;11.20;99.90;;;;;;5044156;28;20484;-83
2021/05/27 08:42:27;;;;;;;22.77;15.67;;;11.30;99.90;;;;;;5042175;28;20552;-82
2021/05/27 08:44:56;;;;;;;24.60;13.53;;;11.30;99.90;;;;;;5042905;28;20452;-81
2021/05/27 08:47:23;;;;;;;22.17;14.20;;;11.30;99.90;;;;;;5046042;28;20453;-82
2021/05/27 08:49:50;;;;;;;20.57;12.87;;;11.30;99.90;;;;;;5046583;28;20445;-82
2021/05/27 08:52:18;;;;;;;19.70;11.80;;;11.20;99.90;;;;;;5045527;28;20501;-82
2021/05/27 08:54:44;;;;;;;19.60;12.53;;;11.20;99.90;;;;;;5045674;28;20449;-82
2021/05/27 08:57:10;;;;;;;24.70;12.90;;;11.30;99.90;;;;;;5046553;28;20469;-83
2021/05/27 08:59:37;;;;;;;17.40;12.30;;;11.40;99.90;;;;;;5046101;28;20532;-83
2021/05/27 09:02:05;;;;;;;25.00;17.30;;;11.50;99.90;;;;;;5044625;28;20513;-82
2021/05/27 09:04:33;;;;;;;19.70;12.23;;;11.50;99.90;;;;;;5044699;28;20453;-82
2021/05/27 09:06:59;;;;;;;23.93;14.47;;;11.70;99.90;;;;;;5046310;28;20486;-82
2021/05/27 09:09:51;;;;;;;15.93;11.57;;;11.80;99.90;;;;;;5045344;28;20484;-81
2021/05/27 09:12:24;;;;;;;21.20;12.17;;;11.80;99.90;;;;;;5045462;28;20480;-83
2021/05/27 09:14:51;;;;;;;22.03;11.80;;;11.90;99.90;;;;;;5045847;28;20515;-83
2021/05/27 09:17:17;;;;;;;22.93;15.30;;;12.10;99.90;;;;;;5046143;28;20507;-83
2021/05/27 09:19:43;;;;;;;23.07;12.87;;;12.00;99.90;;;;;;5044775;28;20556;-82
2021/05/27 09:22:21;;;;;;;19.10;13.23;;;11.90;99.90;;;;;;5044564;28;20584;-82
2021/05/27 09:24:47;;;;;;;17.53;10.97;;;12.00;99.90;;;;;;5046144;28;20516;-83
2021/05/27 09:27:15;;;;;;;20.43;12.53;;;12.10;99.90;;;;;;5045117;28;20838;-81
2021/05/27 09:29:45;;;;;;;23.40;11.80;;;12.10;99.90;;;;;;5045889;28;20547;-82
2021/05/27 09:32:12;;;;;;;16.23;10.80;;;12.30;99.90;;;;;;5045090;28;20548;-82
2021/05/27 09:34:41;;;;;;;20.27;11.60;;;12.30;99.90;;;;;;5049338;28;20463;-80
2021/05/27 09:37:18;;;;;;;20.23;12.00;;;12.40;99.90;;;;;;5047860;28;20453;-80
2021/05/27 09:39:47;;;;;;;22.17;10.77;;;12.60;99.90;;;;;;5047533;28;20547;-79
2021/05/27 09:42:14;;;;;;;19.30;10.03;;;12.60;99.90;;;;;;5044826;28;20491;-79
2021/05/27 09:44:40;;;;;;;15.70;8.50;;;12.60;99.90;;;;;;5050077;28;20552;-81
2021/05/27 09:47:07;;;;;;;16.73;8.30;;;12.60;99.90;;;;;;5044726;28;21025;-80
2021/05/27 09:49:34;;;;;;;16.07;7.60;;;12.60;99.90;;;;;;5046229;28;20535;-80
2021/05/27 09:52:15;;;;;;;17.30;7.27;;;12.60;99.90;;;;;;5050355;28;20497;-83
2021/05/27 09:54:52;;;;;;;13.53;6.77;;;12.60;99.90;;;;;;5045889;28;20456;-82
2021/05/27 09:57:28;;;;;;;12.97;6.27;;;12.60;99.90;;;;;;5040389;28;20471;-82
2021/05/27 09:59:56;;;;;;;11.03;6.00;;;12.50;99.90;;;;;;5044725;28;20460;-82
2021/05/27 10:02:23;;;;;;;15.10;6.90;;;12.40;99.90;;;;;;5041445;28;20495;-81
2021/05/27 10:05:08;;;;;;;15.87;6.37;;;12.30;99.90;;;;;;5047044;28;20470;-81
2021/05/27 10:07:37;;;;;;;13.53;7.03;;;12.20;99.90;;;;;;5037750;28;20459;-82
2021/05/27 10:10:05;;;;;;;12.03;7.03;;;12.20;99.90;;;;;;5044306;28;20459;-82
2021/05/27 10:12:37;;;;;;;15.33;6.70;;;12.20;99.90;;;;;;5041445;28;20469;-81
2021/05/27 10:15:05;;;;;;;11.37;6.50;;;12.10;99.90;;;;;;5041942;28;20457;-81
2021/05/27 10:17:33;;;;;;;10.37;5.60;;;12.00;99.90;;;;;;5040816;28;20437;-82
2021/05/27 10:19:59;;;;;;;12.73;6.60;;;11.90;99.90;;;;;;5045205;28;20528;-83
2021/05/27 10:22:26;;;;;;;16.93;6.57;;;11.90;99.90;;;;;;5042512;28;20480;-79
2021/05/27 10:24:53;;;;;;;12.17;5.90;;;11.90;99.90;;;;;;5039659;28;20460;-81
2021/05/27 10:27:20;;;;;;;12.20;5.80;;;12.20;99.90;;;;;;5039939;28;20449;-81
2021/05/27 10:29:48;;;;;;;13.97;6.03;;;12.50;99.90;;;;;;5039074;28;20520;-82
2021/05/27 10:32:17;;;;;;;11.20;6.10;;;12.60;99.90;;;;;;5037066;28;20481;-82
2021/05/27 10:34:46;;;;;;;9.37;4.87;;;12.60;99.90;;;;;;5038168;28;20523;-82
2021/05/27 10:37:13;;;;;;;15.40;5.63;;;12.50;99.90;;;;;;5037888;28;20511;-81
2021/05/27 10:39:41;;;;;;;12.47;5.00;;;12.50;99.90;;;;;;5037268;28;20510;-80
2021/05/27 10:42:08;;;;;;;10.17;5.40;;;12.30;99.90;;;;;;5040021;28;20513;-81
2021/05/27 10:44:35;;;;;;;12.47;5.97;;;12.20;99.90;;;;;;5039176;28;20453;-80
2021/05/27 10:47:13;;;;;;;16.80;5.90;;;12.20;99.90;;;;;;5042075;28;20457;-78
2021/05/27 10:49:49;;;;;;;11.37;5.83;;;12.00;99.90;;;;;;5038604;28;20551;-83
2021/05/27 10:52:42;;;;;;;10.97;5.70;;;11.90;99.90;;;;;;5035665;28;20511;-79
2021/05/27 10:55:41;;;;;;;14.53;6.00;;;12.00;99.90;;;;;;5033048;28;20941;-80
2021/05/27 10:58:08;;;;;;;11.60;6.37;;;11.90;99.90;;;;;;5030563;28;20465;-82
2021/05/27 11:00:55;;;;;;;13.70;6.07;;;11.90;99.90;;;;;;5041949;28;20511;-83
2021/05/27 11:03:41;;;;;;;14.27;6.60;;;11.90;99.90;;;;;;5037669;28;20507;-84
2021/05/27 11:06:28;;;;;;;14.90;6.03;;;12.10;99.90;;;;;;5034686;28;20464;-81
2021/05/27 11:09:33;;;;;;;12.67;5.57;;;12.20;99.90;;;;;;5043829;28;20445;-84
2021/05/27 11:12:27;;;;;;;14.77;5.60;;;12.40;99.90;;;;;;5042987;28;20473;-82
2021/05/27 11:15:14;;;;;;;9.43;4.83;;;12.30;99.90;;;;;;5041879;28;20459;-83
2021/05/27 11:17:40;;;;;;;10.60;5.07;;;12.30;99.90;;;;;;5046347;28;20449;-82
2021/05/27 11:20:10;;;;;;;11.33;5.20;;;12.40;99.90;;;;;;5049256;28;20460;-82
2021/05/27 11:22:53;;;;;;;13.03;6.20;;;12.60;99.90;;;;;;5056119;28;20481;-82
2021/05/27 11:25:31;;;;;;;14.83;5.53;;;12.60;99.90;;;;;;5056794;28;20425;-84
2021/05/27 11:28:22;;;;;;;19.17;6.60;;;12.80;99.90;;;;;;5056706;28;20866;-85
2021/05/27 11:30:53;;;;;;;15.23;7.10;;;13.00;99.90;;;;;;5051795;28;20524;-81
2021/05/27 11:33:46;;;;;;;16.23;6.80;;;12.80;99.90;;;;;;5046802;28;20445;-83
2021/05/27 11:36:23;;;;;;;12.80;6.90;;;12.80;99.90;;;;;;5047615;28;20472;-82
2021/05/27 11:38:50;;;;;;;12.53;7.13;;;13.00;99.90;;;;;;5038883;28;20448;-81
2021/05/27 11:41:19;;;;;;;12.03;6.33;;;12.90;99.90;;;;;;5046130;28;20468;-81
2021/05/27 11:43:48;;;;;;;12.67;5.90;;;12.70;99.90;;;;;;5046611;28;20543;-82
2021/05/27 11:46:18;;;;;;;14.43;7.07;;;12.80;99.90;;;;;;5045341;28;20510;-82
2021/05/27 11:48:56;;;;;;;15.27;6.67;;;12.80;99.90;;;;;;5046459;28;20436;-82
2021/05/27 11:51:27;;;;;;;13.53;6.00;;;12.80;99.90;;;;;;5044782;28;20484;-81
2021/05/27 11:53:57;;;;;;;22.77;6.77;;;12.70;99.90;;;;;;5047517;28;20532;-83
2021/05/27 11:56:36;;;;;;;13.87;6.50;;;12.60;99.90;;;;;;5048402;28;20440;-83
2021/05/27 11:59:04;;;;;;;15.73;7.33;;;12.60;99.90;;;;;;5045660;28;20488;-83
2021/05/27 12:01:43;;;;;;;15.23;6.97;;;12.30;99.90;;;;;;5061223;23;20497;-81
2021/05/27 12:04:15;;;;;;;15.97;6.53;;;12.30;99.90;;;;;;5043630;28;20452;-83
2021/05/27 12:07:06;;;;;;;15.40;7.30;;;12.30;99.90;;;;;;5045177;28;20437;-83
2021/05/27 12:09:35;;;;;;;14.83;6.17;;;12.30;99.90;;;;;;5041238;28;20445;-84
2021/05/27 12:12:24;;;;;;;11.00;6.40;;;12.40;99.90;;;;;;5040860;28;20457;-81
2021/05/27 12:14:53;;;;;;;15.70;6.80;;;12.50;99.90;;;;;;5043102;28;20441;-83
2021/05/27 12:17:21;;;;;;;14.30;6.63;;;12.60;99.90;;;;;;5043736;28;20441;-82
2021/05/27 12:19:49;;;;;;;15.63;7.23;;;12.60;99.90;;;;;;5044671;28;20936;-83
2021/05/27 12:22:17;;;;;;;12.63;6.30;;;12.50;99.90;;;;;;5043094;28;20596;-82
2021/05/27 12:24:43;;;;;;;12.67;6.80;;;12.50;99.90;;;;;;5043845;28;20493;-82
2021/05/27 12:27:10;;;;;;;14.13;6.87;;;12.40;99.90;;;;;;5042730;28;20475;-83
2021/05/27 12:29:36;;;;;;;13.63;7.33;;;12.40;99.90;;;;;;5044852;28;20558;-83
2021/05/27 12:32:07;;;;;;;14.70;7.30;;;12.50;99.90;;;;;;5046530;28;20940;-83
2021/05/27 12:34:33;;;;;;;13.90;6.60;;;12.50;99.90;;;;;;5028767;28;20449;-82
2021/05/27 12:37:01;;;;;;;14.90;6.97;;;12.50;99.90;;;;;;5046981;28;20457;-83
2021/05/27 12:39:46;;;;;;;13.30;7.10;;;12.50;99.90;;;;;;5045903;28;20461;-82
2021/05/27 12:42:12;;;;;;;13.97;7.90;;;12.50;99.90;;;;;;5039001;28;20484;-83
2021/05/27 12:44:44;;;;;;;19.40;8.23;;;12.50;99.90;;;;;;5046856;28;20461;-82
2021/05/27 12:47:15;;;;;;;18.73;8.43;;;12.50;99.90;;;;;;5041621;28;20498;-82
2021/05/27 12:49:42;;;;;;;12.67;7.10;;;12.60;99.90;;;;;;5047393;28;21003;-82
2021/05/27 12:52:08;;;;;;;12.37;6.90;;;12.70;99.90;;;;;;5029958;28;20489;-82
2021/05/27 12:54:35;;;;;;;13.70;6.80;;;12.80;99.90;;;;;;5038704;28;20937;-83
2021/05/27 12:57:05;;;;;;;15.73;7.37;;;12.80;99.90;;;;;;5039419;28;20456;-82
2021/05/27 12:59:31;;;;;;;14.57;8.30;;;12.90;99.90;;;;;;5029324;28;20442;-82